createdAt,value
2018-12-08T00:00:20.675Z,99287.36
2018-12-08T00:02:48.103Z,99291.42
2018-12-08T00:05:15.501Z,99287.64
2018-12-08T00:07:42.900Z,99284.20
2018-12-08T00:10:10.346Z,99290.98
2018-12-08T00:12:37.794Z,99292.19
2018-12-08T00:15:05.779Z,99303.49
2018-12-08T00:17:33.182Z,99301.06
2018-12-08T00:20:00.582Z,99306.38
2018-12-08T00:22:27.988Z,99306.46
2018-12-08T00:24:55.397Z,99308.31
2018-12-08T00:27:22.801Z,99302.84
2018-12-08T00:29:50.196Z,99303.76
2018-12-08T00:32:17.593Z,99304.05
2018-12-08T00:34:45.002Z,99303.39
2018-12-08T00:37:12.421Z,99312.48
2018-12-08T00:39:39.845Z,99318.95
2018-12-08T00:42:07.283Z,99321.18
2018-12-08T00:44:34.736Z,99328.22
2018-12-08T00:47:02.161Z,99322.39
2018-12-08T00:49:29.559Z,99331.36
2018-12-08T00:51:56.984Z,99332.38
2018-12-08T00:54:24.413Z,99332.66
2018-12-08T00:56:51.857Z,99331.63
2018-12-08T00:59:19.285Z,99341.92
2018-12-08T01:01:46.683Z,99338.50
2018-12-08T01:04:14.086Z,99350.55
2018-12-08T01:06:41.510Z,99348.47
2018-12-08T01:09:08.946Z,99347.44
2018-12-08T01:11:36.383Z,99360.15
2018-12-08T01:14:03.978Z,99351.62
2018-12-08T01:16:31.470Z,99357.81
2018-12-08T01:18:58.883Z,99356.98
2018-12-08T01:21:26.326Z,99364.48
2018-12-08T01:23:53.738Z,99366.44
2018-12-08T01:26:21.126Z,99383.55
2018-12-08T01:28:48.559Z,99387.19
2018-12-08T01:31:15.994Z,99390.16
2018-12-08T01:33:43.764Z,99393.13
2018-12-08T01:36:11.174Z,99392.92
2018-12-08T01:38:38.578Z,99397.66
2018-12-08T01:41:05.994Z,99391.84
2018-12-08T01:43:33.404Z,99400.54
2018-12-08T01:46:00.834Z,99400.31
2018-12-08T01:48:28.249Z,99404.67
2018-12-08T01:50:55.690Z,99410.86
2018-12-08T01:53:23.100Z,99404.83
2018-12-08T01:55:50.521Z,99410.94
2018-12-08T01:58:17.925Z,99401.41
2018-12-08T02:00:45.352Z,99407.55
2018-12-08T02:03:12.754Z,99410.78
2018-12-08T02:05:40.205Z,99411.91
2018-12-08T02:08:07.631Z,99398.41
2018-12-08T02:10:35.065Z,99406.64
2018-12-08T02:13:02.475Z,99401.08
2018-12-08T02:15:29.904Z,99409.41
2018-12-08T02:17:57.317Z,99404.52
2018-12-08T02:20:24.745Z,99410.53
2018-12-08T02:22:52.157Z,99402.09
2018-12-08T02:25:19.594Z,99404.80
2018-12-08T02:27:47.017Z,99404.05
2018-12-08T02:30:14.430Z,99392.25
2018-12-08T02:32:41.845Z,99395.01
2018-12-08T02:35:09.259Z,99389.82
2018-12-08T02:37:36.655Z,99397.05
2018-12-08T02:40:04.890Z,99388.59
2018-12-08T02:42:32.313Z,99390.23
2018-12-08T02:44:59.734Z,99388.02
2018-12-08T02:47:27.146Z,99384.33
2018-12-08T02:49:54.582Z,99382.11
2018-12-08T02:52:22.123Z,99388.86
2018-12-08T02:54:49.537Z,99394.88
2018-12-08T02:57:17.044Z,99378.78
2018-12-08T02:59:44.453Z,99382.67
2018-12-08T03:02:11.873Z,99386.55
2018-12-08T03:04:39.323Z,99388.22
2018-12-08T03:07:06.713Z,99397.29
2018-12-08T03:09:34.131Z,99392.27
2018-12-08T03:12:01.587Z,99394.33
2018-12-08T03:14:29.023Z,99398.20
2018-12-08T03:16:56.495Z,99399.30
2018-12-08T03:19:23.909Z,99385.74
2018-12-08T03:21:51.316Z,99391.30
2018-12-08T03:24:18.722Z,99384.16
2018-12-08T03:26:46.120Z,99385.45
2018-12-08T03:29:13.516Z,99387.20
2018-12-08T03:31:40.914Z,99388.05
2018-12-08T03:34:08.496Z,99388.80
2018-12-08T03:36:35.906Z,99399.97
2018-12-08T03:39:05.756Z,99401.36
2018-12-08T03:41:33.292Z,99394.59
2018-12-08T03:44:00.699Z,99395.53
2018-12-08T03:46:28.143Z,99395.42
2018-12-08T03:48:55.629Z,99387.30
2018-12-08T03:51:23.074Z,99391.99
2018-12-08T03:53:50.577Z,99392.11
2018-12-08T03:56:18.016Z,99384.49
2018-12-08T03:58:45.705Z,99385.95
2018-12-08T04:01:13.119Z,99377.64
2018-12-08T04:03:41.471Z,99384.49
2018-12-08T04:06:08.986Z,99378.77
2018-12-08T04:08:36.407Z,99369.78
2018-12-08T04:11:03.934Z,99378.18
2018-12-08T04:13:31.345Z,99368.73
2018-12-08T04:15:58.762Z,99361.16
2018-12-08T04:18:26.183Z,99366.73
2018-12-08T04:20:53.680Z,99363.00
2018-12-08T04:23:21.085Z,99361.33
2018-12-08T04:25:48.506Z,99355.90
2018-12-08T04:28:15.914Z,99359.03
2018-12-08T04:30:43.330Z,99353.84
2018-12-08T04:33:10.729Z,99350.59
2018-12-08T04:35:38.141Z,99340.42
2018-12-08T04:38:05.557Z,99349.96
2018-12-08T04:40:33.073Z,99329.89
2018-12-08T04:43:00.592Z,99347.37
2018-12-08T04:45:27.994Z,99336.45
2018-12-08T04:47:55.384Z,99338.84
2018-12-08T04:50:22.780Z,99340.14
2018-12-08T04:52:50.184Z,99338.22
2018-12-08T04:55:17.793Z,99328.68
2018-12-08T04:57:45.189Z,99328.68
2018-12-08T05:00:12.628Z,99332.11
2018-12-08T05:02:40.313Z,99343.69
2018-12-08T05:05:07.722Z,99328.86
2018-12-08T05:07:35.152Z,99332.86
2018-12-08T05:10:02.605Z,99324.70
2018-12-08T05:12:30.003Z,99320.61
2018-12-08T05:14:57.421Z,99317.65
2018-12-08T05:17:24.816Z,99321.28
2018-12-08T05:19:52.238Z,99312.20
2018-12-08T05:22:19.750Z,99310.16
2018-12-08T05:24:47.155Z,99307.86
2018-12-08T05:27:14.566Z,99310.91
2018-12-08T05:29:41.986Z,99312.12
2018-12-08T05:32:09.409Z,99302.93
2018-12-08T05:34:36.840Z,99304.43
2018-12-08T05:37:04.265Z,99305.27
2018-12-08T05:39:31.653Z,99299.45
2018-12-08T05:41:59.048Z,99301.13
2018-12-08T05:44:26.467Z,99303.72
2018-12-08T05:46:53.888Z,99297.78
2018-12-08T05:49:21.292Z,99287.84
2018-12-08T05:51:48.706Z,99294.69
2018-12-08T05:54:16.142Z,99288.67
2018-12-08T05:56:43.568Z,99287.84
2018-12-08T05:59:11.069Z,99283.02
2018-12-08T06:01:38.461Z,99278.97
2018-12-08T06:04:05.868Z,99270.38
2018-12-08T06:06:33.286Z,99270.76
2018-12-08T06:09:00.798Z,99265.57
2018-12-08T06:11:28.194Z,99270.67
2018-12-08T06:13:55.618Z,99265.11
2018-12-08T06:16:23.013Z,99256.78
2018-12-08T06:18:50.432Z,99254.64
2018-12-08T06:21:17.853Z,99254.56
2018-12-08T06:23:45.284Z,99257.06
2018-12-08T06:26:12.704Z,99258.91
2018-12-08T06:28:40.133Z,99245.67
2018-12-08T06:31:08.573Z,99251.30
2018-12-08T06:33:35.969Z,99251.80
2018-12-08T06:36:03.494Z,99252.05
2018-12-08T06:38:30.897Z,99256.23
2018-12-08T06:40:58.324Z,99254.47
2018-12-08T06:43:25.766Z,99251.41
2018-12-08T06:45:53.174Z,99258.09
2018-12-08T06:48:20.569Z,99262.36
2018-12-08T06:50:47.992Z,99259.02
2018-12-08T06:53:15.393Z,99258.05
2018-12-08T06:55:42.825Z,99257.27
2018-12-08T06:58:10.253Z,99252.86
2018-12-08T07:00:37.661Z,99262.13
2018-12-08T07:03:05.082Z,99259.82
2018-12-08T07:05:32.529Z,99248.03
2018-12-08T07:07:59.920Z,99244.51
2018-12-08T07:10:27.361Z,99247.69
2018-12-08T07:12:54.798Z,99246.27
2018-12-08T07:15:22.226Z,99245.44
2018-12-08T07:17:49.644Z,99241.36
2018-12-08T07:20:17.047Z,99239.70
2018-12-08T07:22:44.462Z,99238.59
2018-12-08T07:25:11.894Z,99232.20
2018-12-08T07:27:39.301Z,99233.05
2018-12-08T07:30:08.476Z,99246.94
2018-12-08T07:32:38.921Z,99230.63
2018-12-08T07:35:05.992Z,99226.65
2018-12-08T07:37:33.408Z,99230.87
2018-12-08T07:40:00.863Z,99226.31
2018-12-08T07:42:28.397Z,99232.63
2018-12-08T07:44:55.805Z,99229.05
2018-12-08T07:47:23.218Z,99218.03
2018-12-08T07:49:50.672Z,99208.31
2018-12-08T07:52:18.107Z,99212.01
2018-12-08T07:54:45.530Z,99202.38
2018-12-08T07:57:12.945Z,99206.92
2018-12-08T07:59:40.372Z,99204.30
2018-12-08T08:02:07.798Z,99200.31
2018-12-08T08:04:35.190Z,99195.50
2018-12-08T08:07:02.613Z,99188.09
2018-12-08T08:09:30.125Z,99186.05
2018-12-08T08:11:57.541Z,99193.37
2018-12-08T08:14:24.977Z,99184.01
2018-12-08T08:16:52.401Z,99185.86
2018-12-08T08:19:19.819Z,99188.55
2018-12-08T08:21:47.230Z,99185.77
2018-12-08T08:24:14.652Z,99180.58
2018-12-08T08:26:42.052Z,99176.44
2018-12-08T08:29:09.465Z,99173.09
2018-12-08T08:31:36.962Z,99176.89
2018-12-08T08:34:04.390Z,99172.54
2018-12-08T08:36:31.839Z,99172.34
2018-12-08T08:38:59.241Z,99168.55
2018-12-08T08:41:26.684Z,99162.16
2018-12-08T08:43:56.179Z,99159.28
2018-12-08T08:46:23.555Z,99155.86
2018-12-08T08:48:50.957Z,99152.16
2018-12-08T08:51:18.377Z,99157.99
2018-12-08T08:53:45.792Z,99153.89
2018-12-08T08:56:13.296Z,99149.91
2018-12-08T08:58:41.732Z,99146.01
2018-12-08T09:01:09.146Z,99144.53
2018-12-08T09:03:36.581Z,99141.19
2018-12-08T09:06:04.043Z,99132.53
2018-12-08T09:08:31.444Z,99126.50
2018-12-08T09:10:58.868Z,99127.88
2018-12-08T09:13:26.274Z,99124.48
2018-12-08T09:15:53.707Z,99127.17
2018-12-08T09:18:21.125Z,99128.28
2018-12-08T09:20:48.650Z,99113.91
2018-12-08T09:23:16.109Z,99119.00
2018-12-08T09:25:43.520Z,99117.34
2018-12-08T09:28:10.958Z,99109.17
2018-12-08T09:30:38.377Z,99115.86
2018-12-08T09:33:05.785Z,99112.62
2018-12-08T09:35:33.203Z,99112.91
2018-12-08T09:38:00.599Z,99111.04
2018-12-08T09:40:28.030Z,99109.93
2018-12-08T09:42:55.442Z,99105.48
2018-12-08T09:45:22.871Z,99108.54
2018-12-08T09:47:50.314Z,99099.99
2018-12-08T09:50:17.725Z,99093.97
2018-12-08T09:52:45.119Z,99088.48
2018-12-08T09:55:12.524Z,99079.06
2018-12-08T09:57:39.954Z,99073.77
2018-12-08T10:00:07.490Z,99076.69
2018-12-08T10:02:34.903Z,99057.41
2018-12-08T10:05:02.347Z,99063.90
2018-12-08T10:07:29.789Z,99066.39
2018-12-08T10:09:57.225Z,99064.63
2018-12-08T10:12:24.666Z,99060.47
2018-12-08T10:14:52.093Z,99057.73
2018-12-08T10:17:19.514Z,99048.73
2018-12-08T10:19:46.961Z,99040.27
2018-12-08T10:22:14.390Z,99051.22
2018-12-08T10:24:41.784Z,99050.84
2018-12-08T10:27:09.207Z,99052.98
2018-12-08T10:29:36.667Z,99043.16
2018-12-08T10:32:04.100Z,99025.25
2018-12-08T10:34:31.526Z,99037.57
2018-12-08T10:36:58.961Z,99033.98
2018-12-08T10:39:26.364Z,99029.89
2018-12-08T10:41:53.774Z,99027.19
2018-12-08T10:44:21.177Z,99027.19
2018-12-08T10:46:48.587Z,99016.97
2018-12-08T10:49:15.993Z,99014.27
2018-12-08T10:51:43.401Z,99005.08
2018-12-08T10:54:10.813Z,99013.27
2018-12-08T10:56:38.246Z,99003.71
2018-12-08T10:59:05.648Z,99000.08
2018-12-08T11:01:34.997Z,98987.82
2018-12-08T11:04:02.441Z,98974.63
2018-12-08T11:06:29.884Z,98980.95
2018-12-08T11:08:57.322Z,98987.35
2018-12-08T11:11:24.739Z,98985.53
2018-12-08T11:13:52.165Z,98985.89
2018-12-08T11:16:19.576Z,98989.89
2018-12-08T11:18:46.989Z,98976.17
2018-12-08T11:21:14.508Z,98977.94
2018-12-08T11:23:42.965Z,98970.77
2018-12-08T11:26:10.397Z,98967.55
2018-12-08T11:28:37.827Z,98966.24
2018-12-08T11:31:05.252Z,98972.07
2018-12-08T11:33:32.660Z,98970.64
2018-12-08T11:36:00.100Z,98976.64
2018-12-08T11:38:27.610Z,98975.14
2018-12-08T11:40:55.057Z,98970.35
2018-12-08T11:43:23.554Z,98969.63
2018-12-08T11:45:51.200Z,98967.09
2018-12-08T11:48:18.610Z,98974.88
2018-12-08T11:50:46.042Z,98961.69
2018-12-08T11:53:13.534Z,98957.16
2018-12-08T11:55:40.970Z,98949.53
2018-12-08T11:58:08.421Z,98957.63
2018-12-08T12:00:35.970Z,98950.51
2018-12-08T12:03:03.613Z,98942.41
2018-12-08T12:05:31.044Z,98945.58
2018-12-08T12:07:58.445Z,98943.81
2018-12-08T12:10:25.867Z,98949.73
2018-12-08T12:12:53.289Z,98943.14
2018-12-08T12:15:20.729Z,98941.58
2018-12-08T12:17:48.202Z,98943.34
2018-12-08T12:20:15.653Z,98949.11
2018-12-08T12:22:43.096Z,98942.67
2018-12-08T12:25:10.855Z,98934.98
2018-12-08T12:27:38.277Z,98941.11
2018-12-08T12:30:07.725Z,98942.05
2018-12-08T12:32:35.142Z,98937.31
2018-12-08T12:35:02.573Z,98926.30
2018-12-08T12:37:30.000Z,98933.86
2018-12-08T12:39:57.441Z,98926.77
2018-12-08T12:42:24.877Z,98926.00
2018-12-08T12:44:52.277Z,98917.73
2018-12-08T12:47:19.675Z,98909.74
2018-12-08T12:49:47.101Z,98911.14
2018-12-08T12:52:14.522Z,98912.08
2018-12-08T12:54:41.906Z,98912.23
2018-12-08T12:57:09.336Z,98909.23
2018-12-08T12:59:36.768Z,98914.08
2018-12-08T13:02:04.190Z,98903.95
2018-12-08T13:04:31.594Z,98899.43
2018-12-08T13:06:59.008Z,98908.34
2018-12-08T13:09:26.408Z,98909.42
2018-12-08T13:11:53.937Z,98905.63
2018-12-08T13:14:21.363Z,98912.64
2018-12-08T13:16:48.764Z,98903.30
2018-12-08T13:19:16.183Z,98906.36
2018-12-08T13:21:43.704Z,98901.78
2018-12-08T13:24:11.161Z,98904.17
2018-12-08T13:26:38.570Z,98895.69
2018-12-08T13:29:05.975Z,98910.94
2018-12-08T13:31:33.395Z,98907.77
2018-12-08T13:34:04.647Z,98894.55
2018-12-08T13:36:32.054Z,98905.79
2018-12-08T13:38:59.453Z,98896.27
2018-12-08T13:41:26.877Z,98908.11
2018-12-08T13:43:54.294Z,98900.36
2018-12-08T13:46:21.739Z,98908.41
2018-12-08T13:48:49.168Z,98897.66
2018-12-08T13:51:16.594Z,98903.00
2018-12-08T13:53:44.213Z,98906.33
2018-12-08T13:56:11.825Z,98897.08
2018-12-08T13:58:39.249Z,98885.38
2018-12-08T14:01:06.698Z,98894.88
2018-12-08T14:03:34.084Z,98903.16
2018-12-08T14:06:01.513Z,98888.02
2018-12-08T14:08:28.941Z,98896.97
2018-12-08T14:10:56.338Z,98885.88
2018-12-08T14:13:23.763Z,98887.91
2018-12-08T14:15:51.176Z,98889.67
2018-12-08T14:18:18.590Z,98881.30
2018-12-08T14:20:46.114Z,98892.05
2018-12-08T14:23:13.522Z,98886.60
2018-12-08T14:25:40.926Z,98897.73
2018-12-08T14:28:08.645Z,98885.12
2018-12-08T14:30:36.077Z,98875.65
2018-12-08T14:33:03.510Z,98886.89
2018-12-08T14:35:30.958Z,98878.50
2018-12-08T14:37:58.369Z,98878.14
2018-12-08T14:40:25.776Z,98885.84
2018-12-08T14:42:53.176Z,98883.34
2018-12-08T14:45:20.613Z,98883.95
2018-12-08T14:47:48.012Z,98883.02
2018-12-08T14:50:15.426Z,98888.47
2018-12-08T14:52:42.860Z,98883.02
2018-12-08T14:55:10.317Z,98885.59
2018-12-08T14:57:37.756Z,98874.13
2018-12-08T15:00:07.549Z,98878.50
2018-12-08T15:02:35.010Z,98877.53
2018-12-08T15:05:02.464Z,98875.65
2018-12-08T15:07:29.869Z,98875.07
2018-12-08T15:09:57.714Z,98870.91
2018-12-08T15:12:25.142Z,98879.98
2018-12-08T15:14:52.549Z,98881.15
2018-12-08T15:17:19.965Z,98881.98
2018-12-08T15:19:47.371Z,98877.72
2018-12-08T15:22:14.770Z,98876.67
2018-12-08T15:24:42.166Z,98874.56
2018-12-08T15:27:09.604Z,98875.54
2018-12-08T15:29:37.027Z,98878.94
2018-12-08T15:32:04.540Z,98886.27
2018-12-08T15:34:31.954Z,98888.05
2018-12-08T15:36:59.389Z,98881.94
2018-12-08T15:39:26.817Z,98878.97
2018-12-08T15:41:54.230Z,98866.44
2018-12-08T15:44:21.670Z,98874.34
2018-12-08T15:46:49.082Z,98871.53
2018-12-08T15:49:16.495Z,98879.33
2018-12-08T15:51:43.916Z,98887.00
2018-12-08T15:54:11.341Z,98891.62
2018-12-08T15:56:38.741Z,98889.48
2018-12-08T15:59:06.159Z,98884.50
2018-12-08T16:01:33.687Z,98899.25
2018-12-08T16:04:01.085Z,98890.72
2018-12-08T16:06:28.482Z,98892.02
2018-12-08T16:08:55.892Z,98886.93
2018-12-08T16:11:23.293Z,98881.47
2018-12-08T16:13:50.729Z,98890.72
2018-12-08T16:16:18.187Z,98892.75
2018-12-08T16:18:45.611Z,98883.75
2018-12-08T16:21:13.049Z,98883.53
2018-12-08T16:23:41.411Z,98899.03
2018-12-08T16:26:09.280Z,98887.47
2018-12-08T16:28:36.689Z,98877.45
2018-12-08T16:31:04.113Z,98879.33
2018-12-08T16:33:31.542Z,98886.91
2018-12-08T16:35:58.957Z,98876.38
2018-12-08T16:38:26.395Z,98874.59
2018-12-08T16:40:53.803Z,98867.23
2018-12-08T16:43:21.221Z,98876.59
2018-12-08T16:45:48.649Z,98866.30
2018-12-08T16:48:16.100Z,98869.50
2018-12-08T16:50:43.521Z,98878.50
2018-12-08T16:53:10.965Z,98878.61
2018-12-08T16:55:38.505Z,98882.88
2018-12-08T16:58:05.932Z,98877.09
2018-12-08T17:00:33.349Z,98867.02
2018-12-08T17:03:00.783Z,98881.69
2018-12-08T17:05:28.213Z,98869.50
2018-12-08T17:07:55.844Z,98881.47
2018-12-08T17:10:23.248Z,98873.30
2018-12-08T17:12:50.671Z,98864.91
2018-12-08T17:15:18.081Z,98869.53
2018-12-08T17:17:45.529Z,98873.44
2018-12-08T17:20:12.971Z,98864.44
2018-12-08T17:22:40.490Z,98868.09
2018-12-08T17:25:07.921Z,98869.28
2018-12-08T17:27:35.340Z,98857.24
2018-12-08T17:30:02.778Z,98869.50
2018-12-08T17:32:30.180Z,98867.73
2018-12-08T17:34:57.603Z,98869.98
2018-12-08T17:37:25.042Z,98872.94
2018-12-08T17:39:52.440Z,98872.55
2018-12-08T17:42:19.862Z,98870.74
2018-12-08T17:44:47.287Z,98872.16
2018-12-08T17:47:14.701Z,98863.98
2018-12-08T17:49:42.113Z,98876.20
2018-12-08T17:52:09.554Z,98878.69
2018-12-08T17:54:36.955Z,98866.04
2018-12-08T17:57:04.397Z,98871.25
2018-12-08T17:59:31.825Z,98864.38
2018-12-08T18:01:59.287Z,98863.66
2018-12-08T18:04:26.701Z,98859.18
2018-12-08T18:06:54.142Z,98844.15
2018-12-08T18:09:21.647Z,98844.44
2018-12-08T18:11:49.088Z,98846.56
2018-12-08T18:14:16.510Z,98858.27
2018-12-08T18:16:43.942Z,98845.70
2018-12-08T18:19:11.380Z,98849.86
2018-12-08T18:21:38.788Z,98852.20
2018-12-08T18:24:06.298Z,98834.00
2018-12-08T18:26:33.779Z,98842.52
2018-12-08T18:29:01.177Z,98841.00
2018-12-08T18:31:28.592Z,98833.77
2018-12-08T18:33:56.010Z,98829.88
2018-12-08T18:36:23.431Z,98839.20
2018-12-08T18:38:50.871Z,98833.28
2018-12-08T18:41:18.302Z,98826.05
2018-12-08T18:43:45.729Z,98829.13
2018-12-08T18:46:13.129Z,98817.89
2018-12-08T18:48:40.536Z,98815.27
2018-12-08T18:51:07.965Z,98810.28
2018-12-08T18:53:35.377Z,98802.48
2018-12-08T18:56:02.837Z,98801.50
2018-12-08T18:58:30.245Z,98809.20
2018-12-08T19:00:57.646Z,98809.30
2018-12-08T19:03:25.041Z,98803.27
2018-12-08T19:05:52.478Z,98808.84
2018-12-08T19:08:19.872Z,98807.06
2018-12-08T19:10:47.277Z,98800.56
2018-12-08T19:13:14.722Z,98801.25
2018-12-08T19:15:42.149Z,98799.59
2018-12-08T19:18:09.581Z,98800.89
2018-12-08T19:20:37.048Z,98799.95
2018-12-08T19:23:04.479Z,98795.33
2018-12-08T19:25:31.977Z,98790.96
2018-12-08T19:27:59.394Z,98778.80
2018-12-08T19:30:26.837Z,98796.53
2018-12-08T19:32:54.268Z,98795.00
2018-12-08T19:35:21.697Z,98792.52
2018-12-08T19:37:49.114Z,98781.50
2018-12-08T19:40:16.534Z,98776.55
2018-12-08T19:42:43.966Z,98788.36
2018-12-08T19:45:11.415Z,98769.58
2018-12-08T19:47:38.873Z,98775.97
2018-12-08T19:50:06.810Z,98768.39
2018-12-08T19:52:34.301Z,98766.16
2018-12-08T19:55:01.775Z,98763.30
2018-12-08T19:57:29.188Z,98771.10
2018-12-08T19:59:56.602Z,98764.13
2018-12-08T20:02:24.000Z,98751.02
2018-12-08T20:04:51.419Z,98748.89
2018-12-08T20:07:18.867Z,98738.02
2018-12-08T20:09:46.281Z,98737.91
2018-12-08T20:12:13.688Z,98737.19
2018-12-08T20:14:41.120Z,98730.69
2018-12-08T20:17:08.532Z,98729.50
2018-12-08T20:19:35.952Z,98722.89
2018-12-08T20:22:03.385Z,98721.70
2018-12-08T20:24:30.804Z,98725.72
2018-12-08T20:26:58.239Z,98720.66
2018-12-08T20:29:25.669Z,98705.41
2018-12-08T20:31:53.061Z,98700.91
2018-12-08T20:34:20.486Z,98701.71
2018-12-08T20:36:47.909Z,98692.73
2018-12-08T20:39:15.344Z,98684.80
2018-12-08T20:41:42.765Z,98676.52
2018-12-08T20:44:11.524Z,98660.45
2018-12-08T20:46:39.218Z,98658.33
2018-12-08T20:49:06.625Z,98658.46
2018-12-08T20:51:34.064Z,98653.98
2018-12-08T20:54:01.491Z,98639.56
2018-12-08T20:56:28.894Z,98635.31
2018-12-08T20:58:56.283Z,98635.67
2018-12-08T21:01:23.724Z,98628.68
2018-12-08T21:03:51.136Z,98618.53
2018-12-08T21:06:18.545Z,98610.03
2018-12-08T21:08:45.974Z,98611.34
2018-12-08T21:11:13.473Z,98603.29
2018-12-08T21:13:40.878Z,98598.80
2018-12-08T21:16:08.293Z,98589.83
2018-12-08T21:18:35.793Z,98586.62
2018-12-08T21:21:03.359Z,98571.27
2018-12-08T21:23:30.761Z,98571.87
2018-12-08T21:25:58.174Z,98563.72
2018-12-08T21:28:25.630Z,98554.03
2018-12-08T21:30:53.025Z,98561.59
2018-12-08T21:33:20.470Z,98546.81
2018-12-08T21:35:47.889Z,98545.04
2018-12-08T21:38:16.137Z,98530.70
2018-12-08T21:40:43.549Z,98526.36
2018-12-08T21:43:10.980Z,98525.06
2018-12-08T21:45:38.404Z,98523.16
2018-12-08T21:48:05.939Z,98511.95
2018-12-08T21:50:33.353Z,98504.14
2018-12-08T21:53:00.749Z,98501.92
2018-12-08T21:55:28.164Z,98510.05
2018-12-08T21:57:55.593Z,98510.88
2018-12-08T22:00:23.134Z,98504.50
2018-12-08T22:02:50.561Z,98494.20
2018-12-08T22:05:18.006Z,98504.47
2018-12-08T22:07:45.519Z,98492.08
2018-12-08T22:10:12.945Z,98496.78
2018-12-08T22:12:40.379Z,98479.91
2018-12-08T22:15:22.396Z,98469.17
2018-12-08T22:17:49.805Z,98455.25
2018-12-08T22:20:17.226Z,98461.13
2018-12-08T22:22:44.734Z,98453.58
2018-12-08T22:25:12.178Z,98444.83
2018-12-08T22:27:39.609Z,98443.43
2018-12-08T22:30:07.053Z,98428.45
2018-12-08T22:32:34.465Z,98416.63
2018-12-08T22:35:01.869Z,98410.48
2018-12-08T22:37:29.390Z,98395.73
2018-12-08T22:39:56.816Z,98387.00
2018-12-08T22:42:24.227Z,98379.19
2018-12-08T22:44:51.633Z,98368.09
2018-12-08T22:47:19.042Z,98358.89
2018-12-08T22:49:46.456Z,98361.95
2018-12-08T22:52:13.890Z,98354.05
2018-12-08T22:54:41.319Z,98341.66
2018-12-08T22:57:08.777Z,98320.05
2018-12-08T22:59:36.181Z,98321.45
2018-12-08T23:02:03.669Z,98308.35
2018-12-08T23:04:31.087Z,98301.82
2018-12-08T23:07:01.778Z,98295.83
2018-12-08T23:09:29.238Z,98287.68
2018-12-08T23:11:56.737Z,98273.71
2018-12-08T23:14:24.145Z,98269.03
2018-12-08T23:16:51.551Z,98273.88
2018-12-08T23:19:18.982Z,98257.69
2018-12-08T23:21:47.134Z,98251.67
2018-12-08T23:24:14.597Z,98242.22
2018-12-08T23:26:42.033Z,98231.00
2018-12-08T23:29:09.434Z,98217.53
2018-12-08T23:31:36.893Z,98213.23
2018-12-08T23:34:04.345Z,98202.89
2018-12-08T23:36:31.817Z,98190.14
2018-12-08T23:38:59.284Z,98178.94
2018-12-08T23:41:26.708Z,98173.63
2018-12-08T23:43:54.174Z,98163.84
2018-12-08T23:46:22.561Z,98163.01
2018-12-08T23:48:50.100Z,98157.56
2018-12-08T23:51:18.572Z,98139.96
2018-12-08T23:53:46.114Z,98141.03
2018-12-08T23:56:13.559Z,98138.33
2018-12-08T23:58:40.978Z,98125.45
